sensor_id;sensor_type;location;lat;lon;timestamp;P1;durP1;ratioP1;P2;durP2;ratioP2
75169;SDS011;63749;49.186;9.222;2023-02-13T00:00:00;108.50;;;23.43;;
75169;SDS011;63749;49.186;9.222;2023-02-13T00:02:25;111.00;;;23.90;;
75169;SDS011;63749;49.186;9.222;2023-02-13T00:04:50;112.03;;;24.40;;
75169;SDS011;63749;49.186;9.222;2023-02-13T00:07:16;113.47;;;23.30;;
75169;SDS011;63749;49.186;9.222;2023-02-13T00:09:42;115.10;;;24.37;;
75169;SDS011;63749;49.186;9.222;2023-02-13T00:12:07;111.90;;;22.90;;
75169;SDS011;63749;49.186;9.222;2023-02-13T00:14:34;115.40;;;24.35;;
75169;SDS011;63749;49.186;9.222;2023-02-13T00:17:00;111.63;;;22.75;;
75169;SDS011;63749;49.186;9.222;2023-02-13T00:19:26;104.97;;;22.90;;
75169;SDS011;63749;49.186;9.222;2023-02-13T00:21:51;119.73;;;22.87;;
75169;SDS011;63749;49.186;9.222;2023-02-13T00:24:18;123.90;;;23.73;;
75169;SDS011;63749;49.186;9.222;2023-02-13T00:26:44;112.13;;;23.67;;
75169;SDS011;63749;49.186;9.222;2023-02-13T00:29:09;126.25;;;23.83;;
75169;SDS011;63749;49.186;9.222;2023-02-13T00:31:34;116.93;;;22.93;;
75169;SDS011;63749;49.186;9.222;2023-02-13T00:34:00;107.77;;;22.47;;
75169;SDS011;63749;49.186;9.222;2023-02-13T00:36:25;109.43;;;21.77;;
75169;SDS011;63749;49.186;9.222;2023-02-13T00:38:50;103.50;;;21.30;;
75169;SDS011;63749;49.186;9.222;2023-02-13T00:41:20;99.57;;;22.00;;
75169;SDS011;63749;49.186;9.222;2023-02-13T00:43:51;97.75;;;22.08;;
75169;SDS011;63749;49.186;9.222;2023-02-13T00:46:16;101.43;;;20.37;;
75169;SDS011;63749;49.186;9.222;2023-02-13T00:48:42;90.10;;;19.33;;
75169;SDS011;63749;49.186;9.222;2023-02-13T00:51:08;93.60;;;19.63;;
75169;SDS011;63749;49.186;9.222;2023-02-13T00:53:34;91.70;;;21.02;;
75169;SDS011;63749;49.186;9.222;2023-02-13T00:56:00;92.97;;;19.77;;
75169;SDS011;63749;49.186;9.222;2023-02-13T00:58:25;86.28;;;20.88;;
75169;SDS011;63749;49.186;9.222;2023-02-13T01:00:51;95.07;;;21.10;;
75169;SDS011;63749;49.186;9.222;2023-02-13T01:03:18;110.70;;;21.40;;
75169;SDS011;63749;49.186;9.222;2023-02-13T01:05:44;128.13;;;24.08;;
75169;SDS011;63749;49.186;9.222;2023-02-13T01:08:10;128.85;;;23.05;;
75169;SDS011;63749;49.186;9.222;2023-02-13T01:10:37;133.18;;;23.35;;
75169;SDS011;63749;49.186;9.222;2023-02-13T01:13:03;139.35;;;24.48;;
75169;SDS011;63749;49.186;9.222;2023-02-13T01:15:28;140.03;;;24.70;;
75169;SDS011;63749;49.186;9.222;2023-02-13T01:17:54;150.97;;;24.70;;
75169;SDS011;63749;49.186;9.222;2023-02-13T01:20:21;139.35;;;24.20;;
75169;SDS011;63749;49.186;9.222;2023-02-13T01:22:47;144.77;;;24.83;;
75169;SDS011;63749;49.186;9.222;2023-02-13T01:25:12;157.77;;;25.27;;
75169;SDS011;63749;49.186;9.222;2023-02-13T01:27:38;152.93;;;24.67;;
75169;SDS011;63749;49.186;9.222;2023-02-13T01:30:04;146.67;;;25.23;;
75169;SDS011;63749;49.186;9.222;2023-02-13T01:32:35;158.57;;;25.13;;
75169;SDS011;63749;49.186;9.222;2023-02-13T01:35:01;149.90;;;26.43;;
75169;SDS011;63749;49.186;9.222;2023-02-13T01:37:26;163.93;;;26.13;;
75169;SDS011;63749;49.186;9.222;2023-02-13T01:39:53;160.67;;;26.27;;
75169;SDS011;63749;49.186;9.222;2023-02-13T01:42:20;157.93;;;26.35;;
75169;SDS011;63749;49.186;9.222;2023-02-13T01:44:50;171.65;;;27.08;;
75169;SDS011;63749;49.186;9.222;2023-02-13T01:47:25;158.07;;;27.20;;
75169;SDS011;63749;49.186;9.222;2023-02-13T01:50:02;149.95;;;24.60;;
75169;SDS011;63749;49.186;9.222;2023-02-13T01:52:34;169.23;;;24.10;;
75169;SDS011;63749;49.186;9.222;2023-02-13T01:55:02;151.60;;;23.80;;
75169;SDS011;63749;49.186;9.222;2023-02-13T01:57:30;159.48;;;25.85;;
75169;SDS011;63749;49.186;9.222;2023-02-13T01:59:59;141.35;;;25.10;;
75169;SDS011;63749;49.186;9.222;2023-02-13T02:02:37;147.48;;;25.45;;
75169;SDS011;63749;49.186;9.222;2023-02-13T02:05:07;156.47;;;24.57;;
75169;SDS011;63749;49.186;9.222;2023-02-13T02:07:33;146.35;;;25.23;;
75169;SDS011;63749;49.186;9.222;2023-02-13T02:10:01;130.65;;;24.42;;
75169;SDS011;63749;49.186;9.222;2023-02-13T02:12:31;159.55;;;25.17;;
75169;SDS011;63749;49.186;9.222;2023-02-13T02:15:02;164.98;;;25.58;;
75169;SDS011;63749;49.186;9.222;2023-02-13T02:17:29;130.63;;;23.13;;
75169;SDS011;63749;49.186;9.222;2023-02-13T02:22:41;133.90;;;23.87;;
75169;SDS011;63749;49.186;9.222;2023-02-13T02:48:06;161.45;;;24.63;;
75169;SDS011;63749;49.186;9.222;2023-02-13T02:50:58;137.60;;;22.73;;
75169;SDS011;63749;49.186;9.222;2023-02-13T02:53:39;126.35;;;23.75;;
75169;SDS011;63749;49.186;9.222;2023-02-13T02:59:02;150.93;;;22.70;;
75169;SDS011;63749;49.186;9.222;2023-02-13T03:01:52;150.18;;;24.73;;
75169;SDS011;63749;49.186;9.222;2023-02-13T03:04:39;180.47;;;25.30;;
75169;SDS011;63749;49.186;9.222;2023-02-13T03:07:29;158.32;;;25.60;;
75169;SDS011;63749;49.186;9.222;2023-02-13T03:09:59;178.38;;;27.13;;
75169;SDS011;63749;49.186;9.222;2023-02-13T03:12:48;211.77;;;27.25;;
75169;SDS011;63749;49.186;9.222;2023-02-13T03:15:39;179.80;;;27.20;;
75169;SDS011;63749;49.186;9.222;2023-02-13T03:18:30;220.37;;;28.63;;
75169;SDS011;63749;49.186;9.222;2023-02-13T03:21:22;270.98;;;30.27;;
75169;SDS011;63749;49.186;9.222;2023-02-13T03:24:32;200.10;;;27.13;;
75169;SDS011;63749;49.186;9.222;2023-02-13T03:27:10;233.82;;;27.55;;
75169;SDS011;63749;49.186;9.222;2023-02-13T03:29:45;313.40;;;31.17;;
75169;SDS011;63749;49.186;9.222;2023-02-13T03:38:07;261.80;;;28.63;;
75169;SDS011;63749;49.186;9.222;2023-02-13T03:40:57;285.88;;;28.45;;
75169;SDS011;63749;49.186;9.222;2023-02-13T03:43:49;284.65;;;27.75;;
75169;SDS011;63749;49.186;9.222;2023-02-13T03:46:20;578.20;;;34.60;;
75169;SDS011;63749;49.186;9.222;2023-02-13T03:48:47;361.08;;;30.58;;
75169;SDS011;63749;49.186;9.222;2023-02-13T03:51:48;276.10;;;28.00;;
75169;SDS011;63749;49.186;9.222;2023-02-13T03:54:24;232.60;;;26.75;;
75169;SDS011;63749;49.186;9.222;2023-02-13T03:57:36;297.15;;;28.60;;
75169;SDS011;63749;49.186;9.222;2023-02-13T04:00:24;276.37;;;26.80;;
75169;SDS011;63749;49.186;9.222;2023-02-13T04:05:42;231.32;;;26.42;;
75169;SDS011;63749;49.186;9.222;2023-02-13T04:08:10;365.17;;;29.95;;
75169;SDS011;63749;49.186;9.222;2023-02-13T04:10:36;246.73;;;27.77;;
75169;SDS011;63749;49.186;9.222;2023-02-13T04:15:55;228.93;;;25.83;;
75169;SDS011;63749;49.186;9.222;2023-02-13T04:18:42;200.73;;;25.27;;
75169;SDS011;63749;49.186;9.222;2023-02-13T04:21:09;190.20;;;24.70;;
75169;SDS011;63749;49.186;9.222;2023-02-13T04:23:35;176.88;;;23.17;;
75169;SDS011;63749;49.186;9.222;2023-02-13T04:26:05;203.67;;;22.93;;
75169;SDS011;63749;49.186;9.222;2023-02-13T04:28:32;148.00;;;22.77;;
75169;SDS011;63749;49.186;9.222;2023-02-13T04:30:58;183.97;;;23.37;;
75169;SDS011;63749;49.186;9.222;2023-02-13T04:33:23;280.73;;;25.13;;
75169;SDS011;63749;49.186;9.222;2023-02-13T04:35:48;249.60;;;24.08;;
75169;SDS011;63749;49.186;9.222;2023-02-13T04:38:14;294.03;;;25.27;;
75169;SDS011;63749;49.186;9.222;2023-02-13T04:40:39;186.27;;;22.23;;
75169;SDS011;63749;49.186;9.222;2023-02-13T04:43:05;432.00;;;27.17;;
75169;SDS011;63749;49.186;9.222;2023-02-13T04:45:30;228.25;;;23.55;;
75169;SDS011;63749;49.186;9.222;2023-02-13T04:47:56;298.63;;;25.33;;
75169;SDS011;63749;49.186;9.222;2023-02-13T04:50:22;223.35;;;24.13;;
75169;SDS011;63749;49.186;9.222;2023-02-13T04:52:56;206.45;;;23.25;;
75169;SDS011;63749;49.186;9.222;2023-02-13T04:55:22;229.50;;;25.13;;
75169;SDS011;63749;49.186;9.222;2023-02-13T04:57:52;192.05;;;22.70;;
75169;SDS011;63749;49.186;9.222;2023-02-13T05:00:19;139.67;;;21.40;;
75169;SDS011;63749;49.186;9.222;2023-02-13T05:02:45;158.05;;;22.27;;
75169;SDS011;63749;49.186;9.222;2023-02-13T05:05:11;175.87;;;23.40;;
75169;SDS011;63749;49.186;9.222;2023-02-13T05:07:36;176.13;;;22.63;;
75169;SDS011;63749;49.186;9.222;2023-02-13T05:10:02;162.90;;;21.55;;
75169;SDS011;63749;49.186;9.222;2023-02-13T05:12:28;252.57;;;24.50;;
75169;SDS011;63749;49.186;9.222;2023-02-13T05:14:53;290.25;;;24.60;;
75169;SDS011;63749;49.186;9.222;2023-02-13T05:17:19;188.33;;;22.53;;
75169;SDS011;63749;49.186;9.222;2023-02-13T05:19:44;258.10;;;24.42;;
75169;SDS011;63749;49.186;9.222;2023-02-13T05:22:10;213.57;;;21.77;;
75169;SDS011;63749;49.186;9.222;2023-02-13T05:24:54;284.90;;;24.45;;
75169;SDS011;63749;49.186;9.222;2023-02-13T05:27:19;164.60;;;20.97;;
75169;SDS011;63749;49.186;9.222;2023-02-13T05:29:44;113.33;;;20.43;;
75169;SDS011;63749;49.186;9.222;2023-02-13T05:32:10;210.80;;;20.47;;
75169;SDS011;63749;49.186;9.222;2023-02-13T05:34:36;235.43;;;22.67;;
75169;SDS011;63749;49.186;9.222;2023-02-13T05:37:01;213.13;;;21.75;;
75169;SDS011;63749;49.186;9.222;2023-02-13T05:39:27;313.57;;;20.77;;
75169;SDS011;63749;49.186;9.222;2023-02-13T05:41:52;178.17;;;17.37;;
75169;SDS011;63749;49.186;9.222;2023-02-13T05:44:18;182.38;;;18.83;;
75169;SDS011;63749;49.186;9.222;2023-02-13T05:46:43;258.47;;;20.93;;
75169;SDS011;63749;49.186;9.222;2023-02-13T05:49:09;283.27;;;22.13;;
75169;SDS011;63749;49.186;9.222;2023-02-13T05:51:36;327.10;;;22.90;;
75169;SDS011;63749;49.186;9.222;2023-02-13T05:54:02;397.30;;;28.07;;
75169;SDS011;63749;49.186;9.222;2023-02-13T05:56:27;470.48;;;26.50;;
75169;SDS011;63749;49.186;9.222;2023-02-13T05:58:53;348.43;;;23.77;;
75169;SDS011;63749;49.186;9.222;2023-02-13T06:01:20;264.63;;;21.88;;
75169;SDS011;63749;49.186;9.222;2023-02-13T06:03:47;367.20;;;24.73;;
75169;SDS011;63749;49.186;9.222;2023-02-13T06:06:13;405.53;;;27.00;;
75169;SDS011;63749;49.186;9.222;2023-02-13T06:08:39;283.30;;;22.95;;
75169;SDS011;63749;49.186;9.222;2023-02-13T06:11:04;341.83;;;23.10;;
75169;SDS011;63749;49.186;9.222;2023-02-13T06:13:29;278.77;;;22.70;;
75169;SDS011;63749;49.186;9.222;2023-02-13T06:15:55;196.27;;;18.88;;
75169;SDS011;63749;49.186;9.222;2023-02-13T06:18:21;186.40;;;19.33;;
75169;SDS011;63749;49.186;9.222;2023-02-13T06:20:47;135.73;;;19.33;;
75169;SDS011;63749;49.186;9.222;2023-02-13T06:23:12;106.90;;;16.97;;
75169;SDS011;63749;49.186;9.222;2023-02-13T06:25:37;73.00;;;18.07;;
75169;SDS011;63749;49.186;9.222;2023-02-13T06:28:03;78.93;;;16.77;;
75169;SDS011;63749;49.186;9.222;2023-02-13T06:30:29;180.73;;;19.33;;
75169;SDS011;63749;49.186;9.222;2023-02-13T06:32:54;93.72;;;18.52;;
75169;SDS011;63749;49.186;9.222;2023-02-13T06:35:20;83.00;;;17.00;;
75169;SDS011;63749;49.186;9.222;2023-02-13T06:37:45;70.67;;;17.37;;
75169;SDS011;63749;49.186;9.222;2023-02-13T06:40:11;74.50;;;19.75;;
75169;SDS011;63749;49.186;9.222;2023-02-13T06:42:37;78.60;;;20.03;;
75169;SDS011;63749;49.186;9.222;2023-02-13T06:45:04;82.72;;;19.33;;
75169;SDS011;63749;49.186;9.222;2023-02-13T06:47:30;77.32;;;19.88;;
75169;SDS011;63749;49.186;9.222;2023-02-13T06:49:55;124.60;;;19.80;;
75169;SDS011;63749;49.186;9.222;2023-02-13T06:52:21;97.03;;;20.40;;
75169;SDS011;63749;49.186;9.222;2023-02-13T06:54:46;90.37;;;19.50;;
75169;SDS011;63749;49.186;9.222;2023-02-13T06:57:11;78.50;;;18.60;;
75169;SDS011;63749;49.186;9.222;2023-02-13T06:59:37;69.27;;;18.97;;
75169;SDS011;63749;49.186;9.222;2023-02-13T07:02:02;94.63;;;19.30;;
75169;SDS011;63749;49.186;9.222;2023-02-13T07:04:28;82.32;;;18.77;;
75169;SDS011;63749;49.186;9.222;2023-02-13T07:06:54;63.47;;;17.90;;
75169;SDS011;63749;49.186;9.222;2023-02-13T07:09:19;103.13;;;20.02;;
75169;SDS011;63749;49.186;9.222;2023-02-13T07:11:45;138.70;;;20.27;;
75169;SDS011;63749;49.186;9.222;2023-02-13T07:14:10;120.33;;;18.43;;
75169;SDS011;63749;49.186;9.222;2023-02-13T07:16:35;341.33;;;25.60;;
75169;SDS011;63749;49.186;9.222;2023-02-13T07:19:01;164.20;;;21.43;;
75169;SDS011;63749;49.186;9.222;2023-02-13T07:21:26;128.07;;;19.37;;
75169;SDS011;63749;49.186;9.222;2023-02-13T07:23:52;111.07;;;19.15;;
75169;SDS011;63749;49.186;9.222;2023-02-13T07:26:17;101.37;;;18.27;;
75169;SDS011;63749;49.186;9.222;2023-02-13T07:28:43;217.03;;;21.67;;
75169;SDS011;63749;49.186;9.222;2023-02-13T07:31:08;148.80;;;19.00;;
75169;SDS011;63749;49.186;9.222;2023-02-13T07:33:34;129.93;;;19.90;;
75169;SDS011;63749;49.186;9.222;2023-02-13T07:36:00;217.18;;;19.77;;
75169;SDS011;63749;49.186;9.222;2023-02-13T07:38:27;159.18;;;19.35;;
75169;SDS011;63749;49.186;9.222;2023-02-13T07:40:56;119.28;;;17.58;;
75169;SDS011;63749;49.186;9.222;2023-02-13T07:43:22;113.33;;;17.97;;
75169;SDS011;63749;49.186;9.222;2023-02-13T07:45:48;199.15;;;20.05;;
75169;SDS011;63749;49.186;9.222;2023-02-13T07:48:14;161.53;;;18.80;;
75169;SDS011;63749;49.186;9.222;2023-02-13T07:50:39;118.57;;;19.17;;
75169;SDS011;63749;49.186;9.222;2023-02-13T07:53:05;90.63;;;19.37;;
75169;SDS011;63749;49.186;9.222;2023-02-13T07:55:30;63.43;;;18.53;;
75169;SDS011;63749;49.186;9.222;2023-02-13T07:57:57;65.55;;;19.35;;
75169;SDS011;63749;49.186;9.222;2023-02-13T08:00:24;107.10;;;20.37;;
75169;SDS011;63749;49.186;9.222;2023-02-13T08:02:50;100.03;;;19.00;;
75169;SDS011;63749;49.186;9.222;2023-02-13T08:05:15;59.90;;;19.80;;
75169;SDS011;63749;49.186;9.222;2023-02-13T08:07:40;55.63;;;17.93;;
75169;SDS011;63749;49.186;9.222;2023-02-13T08:10:07;53.20;;;18.87;;
75169;SDS011;63749;49.186;9.222;2023-02-13T08:12:52;43.28;;;15.95;;
75169;SDS011;63749;49.186;9.222;2023-02-13T08:15:18;38.33;;;15.75;;
75169;SDS011;63749;49.186;9.222;2023-02-13T08:17:43;39.97;;;16.40;;
75169;SDS011;63749;49.186;9.222;2023-02-13T08:20:09;42.63;;;15.47;;
75169;SDS011;63749;49.186;9.222;2023-02-13T08:22:35;37.88;;;14.57;;
75169;SDS011;63749;49.186;9.222;2023-02-13T08:25:01;39.72;;;15.38;;
75169;SDS011;63749;49.186;9.222;2023-02-13T08:27:27;39.63;;;16.30;;
75169;SDS011;63749;49.186;9.222;2023-02-13T08:29:54;40.35;;;16.35;;
75169;SDS011;63749;49.186;9.222;2023-02-13T08:32:20;44.07;;;15.70;;
75169;SDS011;63749;49.186;9.222;2023-02-13T08:34:46;40.05;;;16.23;;
75169;SDS011;63749;49.186;9.222;2023-02-13T08:37:11;39.07;;;16.30;;
75169;SDS011;63749;49.186;9.222;2023-02-13T08:39:37;40.10;;;15.97;;
75169;SDS011;63749;49.186;9.222;2023-02-13T08:42:02;36.27;;;15.60;;
75169;SDS011;63749;49.186;9.222;2023-02-13T08:44:27;36.35;;;15.00;;
75169;SDS011;63749;49.186;9.222;2023-02-13T08:46:53;34.27;;;14.67;;
75169;SDS011;63749;49.186;9.222;2023-02-13T08:49:18;33.83;;;13.93;;
75169;SDS011;63749;49.186;9.222;2023-02-13T08:51:43;30.17;;;13.17;;
75169;SDS011;63749;49.186;9.222;2023-02-13T08:54:09;30.03;;;13.53;;
75169;SDS011;63749;49.186;9.222;2023-02-13T08:56:34;30.23;;;13.95;;
75169;SDS011;63749;49.186;9.222;2023-02-13T08:58:59;33.83;;;14.60;;
75169;SDS011;63749;49.186;9.222;2023-02-13T09:01:25;33.70;;;13.90;;
75169;SDS011;63749;49.186;9.222;2023-02-13T09:03:50;33.40;;;14.37;;
75169;SDS011;63749;49.186;9.222;2023-02-13T09:06:16;30.45;;;14.07;;
75169;SDS011;63749;49.186;9.222;2023-02-13T09:08:41;28.60;;;13.10;;
75169;SDS011;63749;49.186;9.222;2023-02-13T09:11:08;27.07;;;13.37;;
75169;SDS011;63749;49.186;9.222;2023-02-13T09:13:34;27.63;;;13.45;;
75169;SDS011;63749;49.186;9.222;2023-02-13T09:16:01;27.10;;;12.75;;
75169;SDS011;63749;49.186;9.222;2023-02-13T09:18:29;32.63;;;14.10;;
75169;SDS011;63749;49.186;9.222;2023-02-13T09:21:01;27.38;;;12.73;;
75169;SDS011;63749;49.186;9.222;2023-02-13T09:23:31;27.08;;;12.73;;
75169;SDS011;63749;49.186;9.222;2023-02-13T09:26:01;26.60;;;12.80;;
75169;SDS011;63749;49.186;9.222;2023-02-13T09:28:31;27.33;;;12.93;;
75169;SDS011;63749;49.186;9.222;2023-02-13T09:30:58;27.02;;;12.20;;
75169;SDS011;63749;49.186;9.222;2023-02-13T09:33:23;32.20;;;12.57;;
75169;SDS011;63749;49.186;9.222;2023-02-13T09:35:50;26.95;;;12.38;;
75169;SDS011;63749;49.186;9.222;2023-02-13T09:38:16;26.25;;;11.90;;
75169;SDS011;63749;49.186;9.222;2023-02-13T09:40:49;26.83;;;11.83;;
75169;SDS011;63749;49.186;9.222;2023-02-13T09:43:41;24.73;;;11.82;;
75169;SDS011;63749;49.186;9.222;2023-02-13T09:46:17;26.40;;;12.23;;
75169;SDS011;63749;49.186;9.222;2023-02-13T09:48:47;25.80;;;12.30;;
75169;SDS011;63749;49.186;9.222;2023-02-13T09:51:16;24.17;;;11.02;;
75169;SDS011;63749;49.186;9.222;2023-02-13T09:53:49;25.65;;;12.10;;
75169;SDS011;63749;49.186;9.222;2023-02-13T09:56:20;24.55;;;12.20;;
75169;SDS011;63749;49.186;9.222;2023-02-13T09:58:57;24.33;;;11.45;;
75169;SDS011;63749;49.186;9.222;2023-02-13T10:01:31;24.53;;;11.50;;
75169;SDS011;63749;49.186;9.222;2023-02-13T10:06:39;24.48;;;11.63;;
75169;SDS011;63749;49.186;9.222;2023-02-13T10:11:46;26.45;;;11.25;;
75169;SDS011;63749;49.186;9.222;2023-02-13T10:17:38;22.83;;;11.50;;
75169;SDS011;63749;49.186;9.222;2023-02-13T10:22:52;24.58;;;11.30;;
75169;SDS011;63749;49.186;9.222;2023-02-13T10:25:24;24.80;;;11.25;;
75169;SDS011;63749;49.186;9.222;2023-02-13T10:28:10;22.00;;;10.40;;
75169;SDS011;63749;49.186;9.222;2023-02-13T10:30:54;23.08;;;11.20;;
75169;SDS011;63749;49.186;9.222;2023-02-13T10:33:27;23.25;;;10.40;;
75169;SDS011;63749;49.186;9.222;2023-02-13T10:38:32;19.52;;;10.15;;
75169;SDS011;63749;49.186;9.222;2023-02-13T10:41:36;23.00;;;10.87;;
75169;SDS011;63749;49.186;9.222;2023-02-13T10:50:02;21.58;;;10.70;;
75169;SDS011;63749;49.186;9.222;2023-02-13T10:58:14;18.67;;;9.50;;
75169;SDS011;63749;49.186;9.222;2023-02-13T11:00:49;18.45;;;9.13;;
75169;SDS011;63749;49.186;9.222;2023-02-13T11:03:26;21.98;;;10.20;;
75169;SDS011;63749;49.186;9.222;2023-02-13T11:05:53;20.70;;;10.13;;
75169;SDS011;63749;49.186;9.222;2023-02-13T11:08:27;21.93;;;10.43;;
75169;SDS011;63749;49.186;9.222;2023-02-13T11:10:56;19.75;;;10.07;;
75169;SDS011;63749;49.186;9.222;2023-02-13T11:13:23;20.23;;;10.03;;
75169;SDS011;63749;49.186;9.222;2023-02-13T11:15:57;21.48;;;10.93;;
75169;SDS011;63749;49.186;9.222;2023-02-13T11:18:26;19.17;;;10.07;;
75169;SDS011;63749;49.186;9.222;2023-02-13T11:20:57;19.30;;;10.35;;
75169;SDS011;63749;49.186;9.222;2023-02-13T11:23:31;18.98;;;10.15;;
75169;SDS011;63749;49.186;9.222;2023-02-13T11:26:03;19.00;;;10.07;;
75169;SDS011;63749;49.186;9.222;2023-02-13T11:28:32;17.83;;;9.50;;
75169;SDS011;63749;49.186;9.222;2023-02-13T11:31:18;18.33;;;9.80;;
75169;SDS011;63749;49.186;9.222;2023-02-13T11:33:48;15.82;;;7.53;;
75169;SDS011;63749;49.186;9.222;2023-02-13T11:36:14;17.90;;;9.60;;
75169;SDS011;63749;49.186;9.222;2023-02-13T11:38:47;18.15;;;9.15;;
75169;SDS011;63749;49.186;9.222;2023-02-13T11:41:22;17.95;;;9.40;;
75169;SDS011;63749;49.186;9.222;2023-02-13T11:43:52;17.00;;;9.00;;
75169;SDS011;63749;49.186;9.222;2023-02-13T11:46:25;18.67;;;9.23;;
75169;SDS011;63749;49.186;9.222;2023-02-13T11:49:03;18.35;;;9.07;;
75169;SDS011;63749;49.186;9.222;2023-02-13T11:51:34;19.55;;;9.40;;
75169;SDS011;63749;49.186;9.222;2023-02-13T11:54:29;19.20;;;9.80;;
75169;SDS011;63749;49.186;9.222;2023-02-13T11:59:25;18.25;;;9.43;;
75169;SDS011;63749;49.186;9.222;2023-02-13T12:02:00;19.70;;;9.05;;
75169;SDS011;63749;49.186;9.222;2023-02-13T12:04:41;18.02;;;9.20;;
75169;SDS011;63749;49.186;9.222;2023-02-13T12:10:00;18.08;;;10.00;;
75169;SDS011;63749;49.186;9.222;2023-02-13T12:15:34;15.98;;;9.25;;
75169;SDS011;63749;49.186;9.222;2023-02-13T12:20:26;15.47;;;8.33;;
75169;SDS011;63749;49.186;9.222;2023-02-13T12:29:05;15.43;;;8.07;;
75169;SDS011;63749;49.186;9.222;2023-02-13T12:32:06;14.10;;;8.88;;
75169;SDS011;63749;49.186;9.222;2023-02-13T12:37:47;16.75;;;8.68;;
75169;SDS011;63749;49.186;9.222;2023-02-13T12:40:38;14.77;;;8.68;;
75169;SDS011;63749;49.186;9.222;2023-02-13T12:46:13;15.18;;;8.95;;
75169;SDS011;63749;49.186;9.222;2023-02-13T12:54:27;13.50;;;7.97;;
75169;SDS011;63749;49.186;9.222;2023-02-13T12:57:09;13.57;;;8.30;;
75169;SDS011;63749;49.186;9.222;2023-02-13T13:08:24;13.32;;;8.10;;
75169;SDS011;63749;49.186;9.222;2023-02-13T13:11:44;14.05;;;8.10;;
75169;SDS011;63749;49.186;9.222;2023-02-13T13:14:06;12.43;;;7.13;;
75169;SDS011;63749;49.186;9.222;2023-02-13T13:19:42;11.50;;;6.60;;
75169;SDS011;63749;49.186;9.222;2023-02-13T13:27:43;10.02;;;6.00;;
75169;SDS011;63749;49.186;9.222;2023-02-13T13:32:45;12.27;;;7.88;;
75169;SDS011;63749;49.186;9.222;2023-02-13T13:35:14;10.32;;;6.65;;
75169;SDS011;63749;49.186;9.222;2023-02-13T13:37:42;11.38;;;7.57;;
75169;SDS011;63749;49.186;9.222;2023-02-13T13:51:15;9.77;;;7.88;;
75169;SDS011;63749;49.186;9.222;2023-02-13T14:07:45;9.52;;;7.78;;
75169;SDS011;63749;49.186;9.222;2023-02-13T14:18:06;10.23;;;7.72;;
75169;SDS011;63749;49.186;9.222;2023-02-13T14:23:16;8.93;;;7.50;;
75169;SDS011;63749;49.186;9.222;2023-02-13T14:31:17;9.55;;;7.57;;
75169;SDS011;63749;49.186;9.222;2023-02-13T14:34:21;11.68;;;9.27;;
75169;SDS011;63749;49.186;9.222;2023-02-13T14:36:40;10.37;;;7.80;;
75169;SDS011;63749;49.186;9.222;2023-02-13T14:47:02;9.48;;;7.40;;
75169;SDS011;63749;49.186;9.222;2023-02-13T14:49:37;9.10;;;7.33;;
75169;SDS011;63749;49.186;9.222;2023-02-13T14:52:07;9.10;;;7.45;;
75169;SDS011;63749;49.186;9.222;2023-02-13T14:54:46;11.30;;;8.05;;
75169;SDS011;63749;49.186;9.222;2023-02-13T14:57:16;9.30;;;7.70;;
75169;SDS011;63749;49.186;9.222;2023-02-13T14:59:46;10.00;;;7.80;;
75169;SDS011;63749;49.186;9.222;2023-02-13T15:04:45;10.15;;;7.40;;
75169;SDS011;63749;49.186;9.222;2023-02-13T15:07:22;10.32;;;7.85;;
75169;SDS011;63749;49.186;9.222;2023-02-13T15:09:52;10.27;;;7.95;;
75169;SDS011;63749;49.186;9.222;2023-02-13T15:12:42;12.73;;;7.60;;
75169;SDS011;63749;49.186;9.222;2023-02-13T15:15:21;12.13;;;8.60;;
75169;SDS011;63749;49.186;9.222;2023-02-13T15:17:52;9.68;;;7.68;;
75169;SDS011;63749;49.186;9.222;2023-02-13T15:20:25;9.93;;;7.60;;
75169;SDS011;63749;49.186;9.222;2023-02-13T15:22:52;10.25;;;7.40;;
75169;SDS011;63749;49.186;9.222;2023-02-13T15:25:28;10.55;;;7.70;;
75169;SDS011;63749;49.186;9.222;2023-02-13T15:27:57;11.20;;;7.60;;
75169;SDS011;63749;49.186;9.222;2023-02-13T15:30:25;9.40;;;7.23;;
75169;SDS011;63749;49.186;9.222;2023-02-13T15:32:55;9.30;;;7.43;;
75169;SDS011;63749;49.186;9.222;2023-02-13T15:37:50;10.05;;;7.40;;
75169;SDS011;63749;49.186;9.222;2023-02-13T15:40:27;10.85;;;7.60;;
75169;SDS011;63749;49.186;9.222;2023-02-13T15:42:55;10.13;;;7.40;;
75169;SDS011;63749;49.186;9.222;2023-02-13T15:45:22;9.90;;;7.38;;
75169;SDS011;63749;49.186;9.222;2023-02-13T15:47:50;12.68;;;7.53;;
75169;SDS011;63749;49.186;9.222;2023-02-13T15:50:21;12.80;;;7.78;;
75169;SDS011;63749;49.186;9.222;2023-02-13T15:52:53;13.68;;;8.00;;
75169;SDS011;63749;49.186;9.222;2023-02-13T15:55:20;16.03;;;9.40;;
75169;SDS011;63749;49.186;9.222;2023-02-13T15:57:50;18.40;;;10.43;;
75169;SDS011;63749;49.186;9.222;2023-02-13T16:00:26;18.52;;;9.63;;
75169;SDS011;63749;49.186;9.222;2023-02-13T16:02:55;14.53;;;8.90;;
75169;SDS011;63749;49.186;9.222;2023-02-13T16:05:21;14.77;;;8.13;;
75169;SDS011;63749;49.186;9.222;2023-02-13T16:07:49;18.65;;;9.63;;
75169;SDS011;63749;49.186;9.222;2023-02-13T16:10:29;15.98;;;8.43;;
75169;SDS011;63749;49.186;9.222;2023-02-13T16:13:03;12.98;;;8.20;;
75169;SDS011;63749;49.186;9.222;2023-02-13T16:15:30;17.70;;;8.70;;
75169;SDS011;63749;49.186;9.222;2023-02-13T16:17:59;15.10;;;7.88;;
75169;SDS011;63749;49.186;9.222;2023-02-13T16:20:26;13.80;;;8.27;;
75169;SDS011;63749;49.186;9.222;2023-02-13T16:22:54;15.23;;;7.95;;
75169;SDS011;63749;49.186;9.222;2023-02-13T16:27:51;13.35;;;7.80;;
75169;SDS011;63749;49.186;9.222;2023-02-13T16:30:31;14.50;;;7.97;;
75169;SDS011;63749;49.186;9.222;2023-02-13T16:35:41;15.18;;;7.80;;
75169;SDS011;63749;49.186;9.222;2023-02-13T16:38:23;15.03;;;8.00;;
75169;SDS011;63749;49.186;9.222;2023-02-13T16:40:48;16.60;;;8.50;;
75169;SDS011;63749;49.186;9.222;2023-02-13T16:43:33;16.07;;;8.80;;
75169;SDS011;63749;49.186;9.222;2023-02-13T16:48:47;17.73;;;8.85;;
75169;SDS011;63749;49.186;9.222;2023-02-13T16:51:28;15.20;;;8.40;;
75169;SDS011;63749;49.186;9.222;2023-02-13T16:53:58;15.88;;;8.18;;
75169;SDS011;63749;49.186;9.222;2023-02-13T16:56:24;18.67;;;9.03;;
75169;SDS011;63749;49.186;9.222;2023-02-13T16:58:51;14.95;;;7.90;;
75169;SDS011;63749;49.186;9.222;2023-02-13T17:01:35;14.93;;;8.00;;
75169;SDS011;63749;49.186;9.222;2023-02-13T17:04:04;17.73;;;8.13;;
75169;SDS011;63749;49.186;9.222;2023-02-13T17:07:03;14.90;;;8.10;;
75169;SDS011;63749;49.186;9.222;2023-02-13T17:09:29;17.98;;;8.90;;
75169;SDS011;63749;49.186;9.222;2023-02-13T17:11:54;19.40;;;9.33;;
75169;SDS011;63749;49.186;9.222;2023-02-13T17:14:19;24.33;;;10.70;;
75169;SDS011;63749;49.186;9.222;2023-02-13T17:16:45;20.08;;;9.65;;
75169;SDS011;63749;49.186;9.222;2023-02-13T17:19:11;18.10;;;9.27;;
75169;SDS011;63749;49.186;9.222;2023-02-13T17:21:37;16.63;;;8.90;;
75169;SDS011;63749;49.186;9.222;2023-02-13T17:24:03;21.00;;;8.90;;
75169;SDS011;63749;49.186;9.222;2023-02-13T17:26:29;16.52;;;8.57;;
75169;SDS011;63749;49.186;9.222;2023-02-13T17:28:55;16.53;;;8.20;;
75169;SDS011;63749;49.186;9.222;2023-02-13T17:31:20;15.20;;;8.30;;
75169;SDS011;63749;49.186;9.222;2023-02-13T17:33:45;18.67;;;8.63;;